IPG2511 KSAN-KLAX
Flight info
| Callsign | IPG2511 |
|---|---|
| Flight time | 0h 29m |
| Altitude | 10000 |
| Route | CWARD2 SLI |
| Aircraft | SF50/L-SDGRWY/L |
Departure
| Time | 2026-05-07 05:48 |
|---|---|
| Airport | San Diego International Airport (KSAN) |
Arrival
| Time | 2026-05-07 06:18 |
|---|---|
| Airport | Los Angeles International Airport (KLAX) |
| Time | Latitude | Longitude | Altitude | Speed | Heading |
|---|---|---|---|---|---|
| 2026-05-07 05:31 | 32.73155 | -117.19043 | 20 ft | 0 kts | 114° |
| 2026-05-07 05:40 | 32.73148 | -117.19048 | 20 ft | 3 kts | 317° |
| 2026-05-07 05:41 | 32.73146 | -117.19045 | 20 ft | 0 kts | 303° |
| 2026-05-07 05:41 | 32.73152 | -117.19048 | 20 ft | 3 kts | 11° |
| 2026-05-07 05:42 | 32.73174 | -117.19054 | 23 ft | 5 kts | 311° |
| 2026-05-07 05:42 | 32.73222 | -117.19064 | 20 ft | 11 kts | 24° |
| 2026-05-07 05:42 | 32.73262 | -117.19004 | 20 ft | 11 kts | 104° |
| 2026-05-07 05:42 | 32.73241 | -117.18913 | 20 ft | 11 kts | 105° |
| 2026-05-07 05:43 | 32.73219 | -117.18829 | 22 ft | 10 kts | 107° |
| 2026-05-07 05:43 | 32.73202 | -117.18756 | 33 ft | 9 kts | 103° |
| 2026-05-07 05:43 | 32.73186 | -117.18690 | 26 ft | 8 kts | 108° |
| 2026-05-07 05:43 | 32.73170 | -117.18621 | 25 ft | 10 kts | 104° |
| 2026-05-07 05:44 | 32.73149 | -117.18538 | 23 ft | 11 kts | 106° |
| 2026-05-07 05:44 | 32.73127 | -117.18445 | 22 ft | 12 kts | 106° |
| 2026-05-07 05:44 | 32.73104 | -117.18353 | 23 ft | 11 kts | 105° |
| 2026-05-07 05:44 | 32.73082 | -117.18261 | 22 ft | 12 kts | 105° |
| 2026-05-07 05:45 | 32.73057 | -117.18160 | 20 ft | 13 kts | 107° |
| 2026-05-07 05:45 | 32.73033 | -117.18056 | 19 ft | 13 kts | 107° |
| 2026-05-07 05:45 | 32.73009 | -117.17960 | 19 ft | 11 kts | 105° |
| 2026-05-07 05:45 | 32.72987 | -117.17871 | 19 ft | 11 kts | 107° |
| 2026-05-07 05:46 | 32.72964 | -117.17783 | 18 ft | 11 kts | 109° |
| 2026-05-07 05:46 | 32.72948 | -117.17705 | 19 ft | 9 kts | 83° |
| 2026-05-07 05:46 | 32.72963 | -117.17649 | 20 ft | 6 kts | 69° |
| 2026-05-07 05:46 | 32.73005 | -117.17606 | 22 ft | 11 kts | 355° |
| 2026-05-07 05:47 | 32.73052 | -117.17714 | 20 ft | 22 kts | 287° |
| 2026-05-07 05:47 | 32.73107 | -117.17938 | 19 ft | 34 kts | 286° |
| 2026-05-07 05:47 | 32.73192 | -117.18278 | 23 ft | 68 kts | 286° |
| 2026-05-07 05:47 | 32.73401 | -117.19101 | 133 ft | 129 kts | 285° |
| 2026-05-07 05:48 | 32.73655 | -117.20217 | 505 ft | 155 kts | 287° |
| 2026-05-07 05:48 | 32.74009 | -117.21526 | 791 ft | 175 kts | 287° |
| 2026-05-07 05:48 | 32.74441 | -117.22923 | 1050 ft | 186 kts | 300° |
| 2026-05-07 05:48 | 32.75380 | -117.23949 | 1282 ft | 179 kts | 323° |
| 2026-05-07 05:49 | 32.76283 | -117.24981 | 1557 ft | 183 kts | 308° |
| 2026-05-07 05:49 | 32.77000 | -117.26255 | 1842 ft | 187 kts | 305° |
| 2026-05-07 05:49 | 32.77701 | -117.27565 | 2117 ft | 189 kts | 304° |
| 2026-05-07 05:49 | 32.78409 | -117.28885 | 2393 ft | 190 kts | 304° |
| 2026-05-07 05:50 | 32.79119 | -117.30211 | 2674 ft | 191 kts | 304° |
| 2026-05-07 05:50 | 32.79840 | -117.31538 | 2944 ft | 191 kts | 304° |
| 2026-05-07 05:50 | 32.80640 | -117.32788 | 3212 ft | 189 kts | 309° |
| 2026-05-07 05:50 | 32.81442 | -117.34025 | 3480 ft | 189 kts | 308° |
| 2026-05-07 05:51 | 32.82233 | -117.35256 | 3746 ft | 184 kts | 308° |
| 2026-05-07 05:51 | 32.83050 | -117.36521 | 4012 ft | 204 kts | 309° |
| 2026-05-07 05:51 | 32.83943 | -117.37907 | 4293 ft | 217 kts | 308° |
| 2026-05-07 05:51 | 32.84883 | -117.39364 | 4573 ft | 226 kts | 308° |
| 2026-05-07 05:52 | 32.85837 | -117.40850 | 4845 ft | 232 kts | 309° |
| 2026-05-07 05:52 | 32.86825 | -117.42385 | 5114 ft | 235 kts | 309° |
| 2026-05-07 05:52 | 32.87826 | -117.43941 | 5374 ft | 238 kts | 309° |
| 2026-05-07 05:52 | 32.88836 | -117.45513 | 5641 ft | 240 kts | 309° |
| 2026-05-07 05:53 | 32.89851 | -117.47092 | 5905 ft | 241 kts | 309° |
| 2026-05-07 05:53 | 32.90870 | -117.48677 | 6184 ft | 242 kts | 310° |
| 2026-05-07 05:53 | 32.91893 | -117.50268 | 6451 ft | 243 kts | 310° |
| 2026-05-07 05:53 | 32.92917 | -117.51866 | 6710 ft | 243 kts | 310° |
| 2026-05-07 05:54 | 32.93945 | -117.53470 | 6966 ft | 244 kts | 310° |
| 2026-05-07 05:54 | 32.94980 | -117.55079 | 7226 ft | 245 kts | 310° |
| 2026-05-07 05:54 | 32.96015 | -117.56695 | 7492 ft | 246 kts | 310° |
| 2026-05-07 05:54 | 32.97054 | -117.58315 | 7758 ft | 247 kts | 310° |
| 2026-05-07 05:55 | 32.98095 | -117.59942 | 8031 ft | 247 kts | 311° |
| 2026-05-07 05:55 | 32.99140 | -117.61572 | 8302 ft | 248 kts | 311° |
| 2026-05-07 05:55 | 33.00188 | -117.63211 | 8574 ft | 249 kts | 311° |
| 2026-05-07 05:55 | 33.01239 | -117.64854 | 8842 ft | 249 kts | 311° |
| 2026-05-07 05:56 | 33.02291 | -117.66496 | 9120 ft | 249 kts | 311° |
| 2026-05-07 05:56 | 33.03342 | -117.68144 | 9399 ft | 250 kts | 311° |
| 2026-05-07 05:56 | 33.04398 | -117.69793 | 9680 ft | 251 kts | 311° |
| 2026-05-07 05:56 | 33.05454 | -117.71449 | 9974 ft | 251 kts | 312° |
| 2026-05-07 05:57 | 33.06550 | -117.73060 | 10224 ft | 248 kts | 319° |
| 2026-05-07 05:57 | 33.07860 | -117.74376 | 10480 ft | 246 kts | 325° |
| 2026-05-07 05:57 | 33.09166 | -117.75709 | 10737 ft | 248 kts | 323° |
| 2026-05-07 05:57 | 33.10470 | -117.77059 | 11001 ft | 248 kts | 324° |
| 2026-05-07 05:58 | 33.11785 | -117.78395 | 11265 ft | 249 kts | 324° |
| 2026-05-07 05:58 | 33.13103 | -117.79734 | 11525 ft | 249 kts | 324° |
| 2026-05-07 05:58 | 33.14422 | -117.81077 | 11801 ft | 249 kts | 324° |
| 2026-05-07 05:58 | 33.15740 | -117.82417 | 11881 ft | 257 kts | 324° |
| 2026-05-07 05:59 | 33.17116 | -117.83819 | 11884 ft | 263 kts | 324° |
| 2026-05-07 05:59 | 33.18529 | -117.85219 | 11884 ft | 264 kts | 328° |
| 2026-05-07 05:59 | 33.20141 | -117.86227 | 11876 ft | 261 kts | 343° |
| 2026-05-07 05:59 | 33.21886 | -117.86771 | 11877 ft | 259 kts | 353° |
| 2026-05-07 06:00 | 33.23654 | -117.87199 | 11881 ft | 260 kts | 352° |
| 2026-05-07 06:00 | 33.25426 | -117.87656 | 11879 ft | 261 kts | 352° |
| 2026-05-07 06:00 | 33.27209 | -117.88102 | 11879 ft | 262 kts | 352° |
| 2026-05-07 06:00 | 33.28988 | -117.88543 | 11941 ft | 260 kts | 352° |
| 2026-05-07 06:01 | 33.30756 | -117.88985 | 11979 ft | 260 kts | 352° |
| 2026-05-07 06:01 | 33.32532 | -117.89425 | 11979 ft | 261 kts | 352° |
| 2026-05-07 06:01 | 33.34314 | -117.89871 | 11980 ft | 262 kts | 352° |
| 2026-05-07 06:01 | 33.36102 | -117.90317 | 11983 ft | 263 kts | 352° |
| 2026-05-07 06:02 | 33.37894 | -117.90764 | 11982 ft | 263 kts | 352° |
| 2026-05-07 06:02 | 33.39665 | -117.91331 | 11981 ft | 264 kts | 347° |
| 2026-05-07 06:02 | 33.41421 | -117.91985 | 11983 ft | 265 kts | 347° |
| 2026-05-07 06:02 | 33.43207 | -117.92638 | 11760 ft | 273 kts | 348° |
| 2026-05-07 06:03 | 33.45045 | -117.93300 | 11523 ft | 277 kts | 347° |
| 2026-05-07 06:03 | 33.46887 | -117.93973 | 11280 ft | 277 kts | 347° |
| 2026-05-07 06:03 | 33.48728 | -117.94643 | 11043 ft | 276 kts | 347° |
| 2026-05-07 06:03 | 33.50567 | -117.95312 | 10804 ft | 275 kts | 347° |
| 2026-05-07 06:04 | 33.52314 | -117.95956 | 10568 ft | 250 kts | 348° |
| 2026-05-07 06:04 | 33.53884 | -117.96530 | 10329 ft | 231 kts | 348° |
| 2026-05-07 06:04 | 33.55394 | -117.97073 | 10089 ft | 223 kts | 348° |
| 2026-05-07 06:04 | 33.56862 | -117.97607 | 10000 ft | 218 kts | 348° |
| 2026-05-07 06:05 | 33.58335 | -117.98140 | 9995 ft | 224 kts | 348° |
| 2026-05-07 06:05 | 33.59832 | -117.98686 | 9998 ft | 225 kts | 348° |
| 2026-05-07 06:05 | 33.61326 | -117.99233 | 9998 ft | 224 kts | 348° |
| 2026-05-07 06:05 | 33.62836 | -117.99782 | 9786 ft | 228 kts | 348° |
| 2026-05-07 06:06 | 33.64335 | -118.00333 | 9530 ft | 223 kts | 348° |
| 2026-05-07 06:06 | 33.65815 | -118.00873 | 9273 ft | 221 kts | 348° |
| 2026-05-07 06:06 | 33.67284 | -118.01409 | 9019 ft | 221 kts | 347° |
| 2026-05-07 06:06 | 33.68754 | -118.01946 | 8768 ft | 221 kts | 347° |
| 2026-05-07 06:07 | 33.70225 | -118.02482 | 8518 ft | 221 kts | 347° |
| 2026-05-07 06:07 | 33.71694 | -118.03021 | 8271 ft | 221 kts | 346° |
| 2026-05-07 06:07 | 33.73164 | -118.03558 | 8026 ft | 221 kts | 346° |
| 2026-05-07 06:07 | 33.74631 | -118.04096 | 7783 ft | 220 kts | 346° |
| 2026-05-07 06:08 | 33.76092 | -118.04630 | 7511 ft | 219 kts | 345° |
| 2026-05-07 06:08 | 33.77547 | -118.05163 | 7272 ft | 218 kts | 345° |
| 2026-05-07 06:08 | 33.78989 | -118.05722 | 7030 ft | 217 kts | 338° |
| 2026-05-07 06:08 | 33.80157 | -118.06876 | 6786 ft | 220 kts | 313° |
| 2026-05-07 06:09 | 33.81133 | -118.08292 | 6548 ft | 220 kts | 311° |
| 2026-05-07 06:09 | 33.82126 | -118.09665 | 6301 ft | 215 kts | 319° |
| 2026-05-07 06:09 | 33.83272 | -118.10805 | 6052 ft | 214 kts | 322° |
| 2026-05-07 06:09 | 33.84428 | -118.11936 | 5804 ft | 215 kts | 322° |
| 2026-05-07 06:10 | 33.85598 | -118.13055 | 5588 ft | 215 kts | 322° |
| 2026-05-07 06:10 | 33.86773 | -118.14171 | 5306 ft | 216 kts | 322° |
| 2026-05-07 06:10 | 33.87954 | -118.15283 | 4915 ft | 213 kts | 322° |
| 2026-05-07 06:10 | 33.89111 | -118.16368 | 4563 ft | 209 kts | 322° |
| 2026-05-07 06:11 | 33.90245 | -118.17423 | 4236 ft | 200 kts | 322° |
| 2026-05-07 06:11 | 33.91302 | -118.18405 | 3857 ft | 183 kts | 322° |
| 2026-05-07 06:11 | 33.92276 | -118.19305 | 3461 ft | 171 kts | 322° |
| 2026-05-07 06:11 | 33.93200 | -118.20154 | 3069 ft | 165 kts | 322° |
| 2026-05-07 06:12 | 33.94071 | -118.20921 | 2995 ft | 143 kts | 324° |
| 2026-05-07 06:12 | 33.94839 | -118.21551 | 2981 ft | 125 kts | 326° |
| 2026-05-07 06:12 | 33.95531 | -118.22077 | 2983 ft | 114 kts | 328° |
| 2026-05-07 06:12 | 33.96270 | -118.22591 | 3018 ft | 125 kts | 330° |
| 2026-05-07 06:13 | 33.97017 | -118.23173 | 2912 ft | 133 kts | 310° |
| 2026-05-07 06:13 | 33.97150 | -118.24245 | 2763 ft | 141 kts | 257° |
| 2026-05-07 06:13 | 33.96821 | -118.25374 | 2609 ft | 144 kts | 254° |
| 2026-05-07 06:13 | 33.96623 | -118.26548 | 2519 ft | 139 kts | 261° |
| 2026-05-07 06:14 | 33.96492 | -118.27590 | 2338 ft | 116 kts | 263° |
| 2026-05-07 06:14 | 33.96404 | -118.28535 | 2093 ft | 114 kts | 265° |
| 2026-05-07 06:14 | 33.96317 | -118.29492 | 1859 ft | 117 kts | 263° |
| 2026-05-07 06:14 | 33.96222 | -118.30463 | 1669 ft | 115 kts | 263° |
| 2026-05-07 06:15 | 33.96129 | -118.31400 | 1548 ft | 110 kts | 263° |
| 2026-05-07 06:15 | 33.96041 | -118.32339 | 1424 ft | 116 kts | 262° |
| 2026-05-07 06:15 | 33.95923 | -118.33314 | 1306 ft | 118 kts | 261° |
| 2026-05-07 06:15 | 33.95806 | -118.34283 | 1168 ft | 117 kts | 262° |
| 2026-05-07 06:16 | 33.95709 | -118.35255 | 1008 ft | 118 kts | 263° |
| 2026-05-07 06:16 | 33.95614 | -118.36222 | 874 ft | 114 kts | 263° |
| 2026-05-07 06:16 | 33.95524 | -118.37159 | 689 ft | 110 kts | 263° |
| 2026-05-07 06:16 | 33.95431 | -118.38055 | 523 ft | 107 kts | 262° |
| 2026-05-07 06:17 | 33.95338 | -118.38950 | 364 ft | 108 kts | 263° |
| 2026-05-07 06:17 | 33.95246 | -118.39837 | 237 ft | 104 kts | 262° |
| 2026-05-07 06:17 | 33.95157 | -118.40692 | 128 ft | 100 kts | 263° |
| 2026-05-07 06:17 | 33.95083 | -118.41447 | 120 ft | 67 kts | 263° |
| 2026-05-07 06:18 | 33.95024 | -118.41768 | 119 ft | 26 kts | 244° |
| 2026-05-07 06:18 | 33.94952 | -118.41904 | 119 ft | 16 kts | 233° |
| 2026-05-07 06:18 | 33.94897 | -118.41992 | 119 ft | 12 kts | 232° |
| 2026-05-07 06:18 | 33.94842 | -118.42079 | 117 ft | 14 kts | 233° |
| 2026-05-07 06:19 | 33.94779 | -118.42180 | 119 ft | 16 kts | 231° |
| 2026-05-07 06:19 | 33.94695 | -118.42231 | 118 ft | 15 kts | 134° |
| 2026-05-07 06:19 | 33.94697 | -118.42103 | 119 ft | 17 kts | 85° |
| 2026-05-07 06:19 | 33.94713 | -118.41953 | 119 ft | 19 kts | 82° |
| 2026-05-07 06:20 | 33.94730 | -118.41785 | 119 ft | 21 kts | 84° |
| 2026-05-07 06:20 | 33.94749 | -118.41601 | 119 ft | 23 kts | 82° |
| 2026-05-07 06:20 | 33.94770 | -118.41415 | 119 ft | 21 kts | 73° |
| 2026-05-07 06:20 | 33.94753 | -118.41297 | 119 ft | 13 kts | 164° |
| 2026-05-07 06:21 | 33.94666 | -118.41282 | 118 ft | 13 kts | 174° |
| 2026-05-07 06:21 | 33.94581 | -118.41270 | 119 ft | 12 kts | 170° |
| 2026-05-07 06:21 | 33.94481 | -118.41251 | 119 ft | 17 kts | 173° |
| 2026-05-07 06:21 | 33.94371 | -118.41218 | 117 ft | 11 kts | 118° |
| 2026-05-07 06:22 | 33.94374 | -118.41164 | 117 ft | 4 kts | 82° |
| 2026-05-07 06:22 | 33.94374 | -118.41161 | 118 ft | 0 kts | 84° |